Etusivu
METAR-TAF:

METAR-TAF

Lentoasemat :

Florø, Norja

Leveyspiiri: 61-35N, Pituuspiiri: 005-02E, korkeus merenpinnasta: 0 m

Tämänhetkinen sää

Tämä raportti tehtiin 30 minuuttia sitten, kello 19.20 UTC
Tuuli 12 kn luoteesta
Lämpötila 15°C
Kosteus 77%
Ilmanpaine 1013 hPa
Näkyvyys 10 km tai enemmän

METAR: ENFL 221920Z AUTO 32012KT 9999NDV OVC150/// 15/11 Q1013

Aika: 21:50 (19:50 UTC)

Sääennuste

Tämä raportti tehtiin 2 tuntia ja 50 minuuttia sitten, kello 17.00 UTC
Ennuste voimassa 22. päivästä klo 18 UTC - 23. päivään klo 03 UTC
Tuuli 12 kn luoteesta
Näkyvyys 10 km tai enemmän
Hajanaisia pilviä 2500 ft:n korkeudessa

TAF: ENFL 221700Z 2218/2303 31012KT 9999 SCT025

Säähavainnot ja -ennusteet yli 4000 lentoasemalta (METAR- ja TAF-raportit).

Käytössä olevat sääasemat on merkitty karttaan keltaisilla ja punaisilla pisteillä.

Aseta hiiri pisteen päälle nähdäksesi sääaseman nimen.

Klikkaa sitten nähdäksesi säähavainnot ja -ennusteet.

Kartan vaihtaminen: klikkaa mustalla rastilla varustettuja vihreitä pisteitä, niin voit zoomata sisään; viivalla varustettua vihreää pistettä, niin voit zoomata ulos tai vihreitä nuolia, niin pääset viereisille kartoille.


METAR-TAF: